sensor_id;sensor_type;location;lat;lon;timestamp;P1;durP1;ratioP1;P2;durP2;ratioP2
54428;SDS011;40337;52.978;6.310;2023-08-07T00:00:23;10.10;;;5.97;;
54428;SDS011;40337;52.978;6.310;2023-08-07T00:02:49;6.78;;;5.68;;
54428;SDS011;40337;52.978;6.310;2023-08-07T00:05:14;7.78;;;5.15;;
54428;SDS011;40337;52.978;6.310;2023-08-07T00:07:41;7.95;;;5.78;;
54428;SDS011;40337;52.978;6.310;2023-08-07T00:10:07;7.70;;;5.80;;
54428;SDS011;40337;52.978;6.310;2023-08-07T00:12:33;8.18;;;5.80;;
54428;SDS011;40337;52.978;6.310;2023-08-07T00:14:59;6.70;;;5.45;;
54428;SDS011;40337;52.978;6.310;2023-08-07T00:17:26;7.28;;;5.50;;
54428;SDS011;40337;52.978;6.310;2023-08-07T00:19:51;6.93;;;5.43;;
54428;SDS011;40337;52.978;6.310;2023-08-07T00:22:17;8.32;;;5.45;;
54428;SDS011;40337;52.978;6.310;2023-08-07T00:24:42;8.70;;;5.55;;
54428;SDS011;40337;52.978;6.310;2023-08-07T00:27:08;8.90;;;4.88;;
54428;SDS011;40337;52.978;6.310;2023-08-07T00:29:35;6.85;;;5.05;;
54428;SDS011;40337;52.978;6.310;2023-08-07T00:32:01;8.23;;;5.40;;
54428;SDS011;40337;52.978;6.310;2023-08-07T00:34:27;8.63;;;5.13;;
54428;SDS011;40337;52.978;6.310;2023-08-07T00:36:53;8.88;;;5.25;;
54428;SDS011;40337;52.978;6.310;2023-08-07T00:39:18;7.85;;;5.32;;
54428;SDS011;40337;52.978;6.310;2023-08-07T00:41:44;8.13;;;4.80;;
54428;SDS011;40337;52.978;6.310;2023-08-07T00:44:09;8.77;;;5.00;;
54428;SDS011;40337;52.978;6.310;2023-08-07T00:46:35;5.45;;;4.30;;
54428;SDS011;40337;52.978;6.310;2023-08-07T00:49:01;6.57;;;4.15;;
54428;SDS011;40337;52.978;6.310;2023-08-07T00:51:28;6.82;;;4.20;;
54428;SDS011;40337;52.978;6.310;2023-08-07T00:53:54;6.40;;;4.20;;
54428;SDS011;40337;52.978;6.310;2023-08-07T00:56:20;7.78;;;4.10;;
54428;SDS011;40337;52.978;6.310;2023-08-07T00:58:46;7.50;;;4.10;;
54428;SDS011;40337;52.978;6.310;2023-08-07T01:01:12;5.28;;;3.45;;
54428;SDS011;40337;52.978;6.310;2023-08-07T01:03:37;7.95;;;3.75;;
54428;SDS011;40337;52.978;6.310;2023-08-07T01:06:03;6.47;;;3.00;;
54428;SDS011;40337;52.978;6.310;2023-08-07T01:08:29;6.25;;;2.83;;
54428;SDS011;40337;52.978;6.310;2023-08-07T01:11:02;5.80;;;2.80;;
54428;SDS011;40337;52.978;6.310;2023-08-07T01:13:55;7.57;;;2.50;;
54428;SDS011;40337;52.978;6.310;2023-08-07T01:16:33;5.82;;;2.70;;
54428;SDS011;40337;52.978;6.310;2023-08-07T01:19:02;8.15;;;3.05;;
54428;SDS011;40337;52.978;6.310;2023-08-07T01:21:29;7.05;;;2.88;;
54428;SDS011;40337;52.978;6.310;2023-08-07T01:23:56;7.13;;;2.72;;
54428;SDS011;40337;52.978;6.310;2023-08-07T01:26:22;9.27;;;3.10;;
54428;SDS011;40337;52.978;6.310;2023-08-07T01:28:57;8.23;;;2.80;;
54428;SDS011;40337;52.978;6.310;2023-08-07T01:31:29;7.13;;;2.50;;
54428;SDS011;40337;52.978;6.310;2023-08-07T01:33:59;9.55;;;2.78;;
54428;SDS011;40337;52.978;6.310;2023-08-07T01:36:30;13.20;;;2.97;;
54428;SDS011;40337;52.978;6.310;2023-08-07T01:38:57;9.05;;;2.97;;
54428;SDS011;40337;52.978;6.310;2023-08-07T01:41:24;11.20;;;2.95;;
54428;SDS011;40337;52.978;6.310;2023-08-07T01:43:50;9.50;;;3.03;;
54428;SDS011;40337;52.978;6.310;2023-08-07T01:46:17;8.65;;;2.88;;
54428;SDS011;40337;52.978;6.310;2023-08-07T01:48:43;7.68;;;2.80;;
54428;SDS011;40337;52.978;6.310;2023-08-07T01:51:08;9.77;;;2.90;;
54428;SDS011;40337;52.978;6.310;2023-08-07T01:53:34;10.20;;;2.85;;
54428;SDS011;40337;52.978;6.310;2023-08-07T01:55:59;8.25;;;2.80;;
54428;SDS011;40337;52.978;6.310;2023-08-07T01:58:25;9.93;;;2.80;;
54428;SDS011;40337;52.978;6.310;2023-08-07T02:00:51;11.57;;;2.83;;
54428;SDS011;40337;52.978;6.310;2023-08-07T02:03:17;10.82;;;2.90;;
54428;SDS011;40337;52.978;6.310;2023-08-07T02:05:47;8.38;;;2.70;;
54428;SDS011;40337;52.978;6.310;2023-08-07T02:08:12;11.40;;;3.08;;
54428;SDS011;40337;52.978;6.310;2023-08-07T02:10:38;9.77;;;3.03;;
54428;SDS011;40337;52.978;6.310;2023-08-07T02:13:03;9.07;;;2.85;;
54428;SDS011;40337;52.978;6.310;2023-08-07T02:15:29;10.30;;;2.67;;
54428;SDS011;40337;52.978;6.310;2023-08-07T02:17:55;10.35;;;2.65;;
54428;SDS011;40337;52.978;6.310;2023-08-07T02:20:20;10.10;;;2.80;;
54428;SDS011;40337;52.978;6.310;2023-08-07T02:22:46;11.60;;;2.78;;
54428;SDS011;40337;52.978;6.310;2023-08-07T02:25:11;9.05;;;3.13;;
54428;SDS011;40337;52.978;6.310;2023-08-07T02:27:37;9.90;;;2.83;;
54428;SDS011;40337;52.978;6.310;2023-08-07T02:30:03;9.82;;;2.90;;
54428;SDS011;40337;52.978;6.310;2023-08-07T02:32:30;12.68;;;3.00;;
54428;SDS011;40337;52.978;6.310;2023-08-07T02:34:55;10.88;;;2.80;;
54428;SDS011;40337;52.978;6.310;2023-08-07T02:37:21;9.88;;;2.65;;
54428;SDS011;40337;52.978;6.310;2023-08-07T02:39:47;9.55;;;2.83;;
54428;SDS011;40337;52.978;6.310;2023-08-07T02:42:12;9.18;;;2.65;;
54428;SDS011;40337;52.978;6.310;2023-08-07T02:44:38;10.82;;;2.97;;
54428;SDS011;40337;52.978;6.310;2023-08-07T02:47:03;10.18;;;2.90;;
54428;SDS011;40337;52.978;6.310;2023-08-07T02:49:29;10.35;;;2.83;;
54428;SDS011;40337;52.978;6.310;2023-08-07T02:51:55;9.77;;;2.92;;
54428;SDS011;40337;52.978;6.310;2023-08-07T02:54:20;10.20;;;2.75;;
54428;SDS011;40337;52.978;6.310;2023-08-07T02:56:46;10.35;;;2.85;;
54428;SDS011;40337;52.978;6.310;2023-08-07T02:59:13;8.90;;;2.60;;
54428;SDS011;40337;52.978;6.310;2023-08-07T03:01:39;12.90;;;3.05;;
54428;SDS011;40337;52.978;6.310;2023-08-07T03:04:04;10.48;;;3.03;;
54428;SDS011;40337;52.978;6.310;2023-08-07T03:06:30;10.65;;;2.58;;
54428;SDS011;40337;52.978;6.310;2023-08-07T03:08:56;8.30;;;2.53;;
54428;SDS011;40337;52.978;6.310;2023-08-07T03:11:21;10.32;;;2.80;;
54428;SDS011;40337;52.978;6.310;2023-08-07T03:13:47;8.95;;;2.78;;
54428;SDS011;40337;52.978;6.310;2023-08-07T03:16:14;15.00;;;3.47;;
54428;SDS011;40337;52.978;6.310;2023-08-07T03:18:39;13.60;;;3.20;;
54428;SDS011;40337;52.978;6.310;2023-08-07T03:21:05;11.32;;;2.92;;
54428;SDS011;40337;52.978;6.310;2023-08-07T03:23:31;9.60;;;2.75;;
54428;SDS011;40337;52.978;6.310;2023-08-07T03:26:05;11.02;;;3.50;;
54428;SDS011;40337;52.978;6.310;2023-08-07T03:28:32;10.68;;;3.30;;
54428;SDS011;40337;52.978;6.310;2023-08-07T03:30:59;13.15;;;3.80;;
54428;SDS011;40337;52.978;6.310;2023-08-07T03:33:24;12.70;;;3.80;;
54428;SDS011;40337;52.978;6.310;2023-08-07T03:35:50;10.65;;;3.33;;
54428;SDS011;40337;52.978;6.310;2023-08-07T03:38:16;12.73;;;3.35;;
54428;SDS011;40337;52.978;6.310;2023-08-07T03:40:41;11.15;;;3.65;;
54428;SDS011;40337;52.978;6.310;2023-08-07T03:43:07;8.55;;;3.17;;
54428;SDS011;40337;52.978;6.310;2023-08-07T03:45:32;9.30;;;3.50;;
54428;SDS011;40337;52.978;6.310;2023-08-07T03:47:58;9.10;;;3.10;;
54428;SDS011;40337;52.978;6.310;2023-08-07T03:50:23;6.63;;;2.67;;
54428;SDS011;40337;52.978;6.310;2023-08-07T03:52:49;8.00;;;3.25;;
54428;SDS011;40337;52.978;6.310;2023-08-07T03:55:14;9.52;;;2.95;;
54428;SDS011;40337;52.978;6.310;2023-08-07T03:57:40;7.55;;;2.88;;
54428;SDS011;40337;52.978;6.310;2023-08-07T04:00:06;7.85;;;2.80;;
54428;SDS011;40337;52.978;6.310;2023-08-07T04:02:32;9.15;;;2.90;;
54428;SDS011;40337;52.978;6.310;2023-08-07T04:04:58;7.82;;;3.40;;
54428;SDS011;40337;52.978;6.310;2023-08-07T04:07:23;9.88;;;3.42;;
54428;SDS011;40337;52.978;6.310;2023-08-07T04:09:49;10.38;;;3.80;;
54428;SDS011;40337;52.978;6.310;2023-08-07T04:12:14;8.20;;;3.15;;
54428;SDS011;40337;52.978;6.310;2023-08-07T04:14:40;9.85;;;3.50;;
54428;SDS011;40337;52.978;6.310;2023-08-07T04:17:05;8.32;;;3.33;;
54428;SDS011;40337;52.978;6.310;2023-08-07T04:19:31;9.50;;;3.53;;
54428;SDS011;40337;52.978;6.310;2023-08-07T04:21:57;9.18;;;3.80;;
54428;SDS011;40337;52.978;6.310;2023-08-07T04:24:22;10.57;;;3.70;;
54428;SDS011;40337;52.978;6.310;2023-08-07T04:26:48;8.57;;;3.60;;
54428;SDS011;40337;52.978;6.310;2023-08-07T04:29:14;11.85;;;3.70;;
54428;SDS011;40337;52.978;6.310;2023-08-07T04:31:39;11.32;;;3.50;;
54428;SDS011;40337;52.978;6.310;2023-08-07T04:34:05;13.43;;;3.60;;
54428;SDS011;40337;52.978;6.310;2023-08-07T04:36:30;11.38;;;3.58;;
54428;SDS011;40337;52.978;6.310;2023-08-07T04:38:56;10.68;;;3.50;;
54428;SDS011;40337;52.978;6.310;2023-08-07T04:41:22;9.05;;;3.42;;
54428;SDS011;40337;52.978;6.310;2023-08-07T04:43:48;9.77;;;3.40;;
54428;SDS011;40337;52.978;6.310;2023-08-07T04:46:14;6.65;;;2.65;;
54428;SDS011;40337;52.978;6.310;2023-08-07T04:48:39;6.45;;;2.67;;
54428;SDS011;40337;52.978;6.310;2023-08-07T04:51:05;6.57;;;3.00;;
54428;SDS011;40337;52.978;6.310;2023-08-07T04:53:31;7.80;;;3.00;;
54428;SDS011;40337;52.978;6.310;2023-08-07T04:55:56;7.43;;;2.88;;
54428;SDS011;40337;52.978;6.310;2023-08-07T04:58:23;10.32;;;3.13;;
54428;SDS011;40337;52.978;6.310;2023-08-07T05:00:53;6.95;;;3.00;;
54428;SDS011;40337;52.978;6.310;2023-08-07T05:03:23;7.78;;;3.20;;
54428;SDS011;40337;52.978;6.310;2023-08-07T05:05:48;9.57;;;3.65;;
54428;SDS011;40337;52.978;6.310;2023-08-07T05:08:14;8.95;;;3.40;;
54428;SDS011;40337;52.978;6.310;2023-08-07T05:10:40;9.20;;;3.28;;
54428;SDS011;40337;52.978;6.310;2023-08-07T05:13:05;9.07;;;3.30;;
54428;SDS011;40337;52.978;6.310;2023-08-07T05:15:31;8.50;;;3.13;;
54428;SDS011;40337;52.978;6.310;2023-08-07T05:17:57;9.10;;;3.42;;
54428;SDS011;40337;52.978;6.310;2023-08-07T05:20:22;12.13;;;4.13;;
54428;SDS011;40337;52.978;6.310;2023-08-07T05:22:48;10.82;;;3.80;;
54428;SDS011;40337;52.978;6.310;2023-08-07T05:25:14;12.07;;;3.88;;
54428;SDS011;40337;52.978;6.310;2023-08-07T05:27:49;12.75;;;3.80;;
54428;SDS011;40337;52.978;6.310;2023-08-07T05:30:15;12.32;;;3.83;;
54428;SDS011;40337;52.978;6.310;2023-08-07T05:32:41;10.80;;;4.18;;
54428;SDS011;40337;52.978;6.310;2023-08-07T05:35:07;13.07;;;4.28;;
54428;SDS011;40337;52.978;6.310;2023-08-07T05:37:33;12.88;;;3.90;;
54428;SDS011;40337;52.978;6.310;2023-08-07T05:39:59;13.93;;;4.22;;
54428;SDS011;40337;52.978;6.310;2023-08-07T05:42:25;15.88;;;4.80;;
54428;SDS011;40337;52.978;6.310;2023-08-07T05:44:50;13.57;;;4.30;;
54428;SDS011;40337;52.978;6.310;2023-08-07T05:47:16;13.85;;;4.70;;
54428;SDS011;40337;52.978;6.310;2023-08-07T05:49:42;14.80;;;5.00;;
54428;SDS011;40337;52.978;6.310;2023-08-07T05:52:07;15.70;;;4.38;;
54428;SDS011;40337;52.978;6.310;2023-08-07T05:54:33;22.15;;;5.05;;
54428;SDS011;40337;52.978;6.310;2023-08-07T05:56:59;12.27;;;4.30;;
54428;SDS011;40337;52.978;6.310;2023-08-07T05:59:24;12.35;;;4.30;;
54428;SDS011;40337;52.978;6.310;2023-08-07T06:01:50;12.77;;;4.50;;
54428;SDS011;40337;52.978;6.310;2023-08-07T06:04:16;13.07;;;4.40;;
54428;SDS011;40337;52.978;6.310;2023-08-07T06:06:42;10.77;;;4.10;;
54428;SDS011;40337;52.978;6.310;2023-08-07T06:09:07;13.13;;;4.05;;
54428;SDS011;40337;52.978;6.310;2023-08-07T06:11:33;11.25;;;4.07;;
54428;SDS011;40337;52.978;6.310;2023-08-07T06:13:59;11.18;;;4.25;;
54428;SDS011;40337;52.978;6.310;2023-08-07T06:16:25;9.50;;;3.22;;
54428;SDS011;40337;52.978;6.310;2023-08-07T06:18:50;9.52;;;2.97;;
54428;SDS011;40337;52.978;6.310;2023-08-07T06:21:16;10.32;;;3.00;;
54428;SDS011;40337;52.978;6.310;2023-08-07T06:23:42;9.68;;;3.15;;
54428;SDS011;40337;52.978;6.310;2023-08-07T06:26:07;7.13;;;2.88;;
54428;SDS011;40337;52.978;6.310;2023-08-07T06:28:33;8.40;;;3.15;;
54428;SDS011;40337;52.978;6.310;2023-08-07T06:31:05;9.45;;;3.65;;
54428;SDS011;40337;52.978;6.310;2023-08-07T06:33:32;7.47;;;2.90;;
54428;SDS011;40337;52.978;6.310;2023-08-07T06:35:59;8.80;;;3.10;;
54428;SDS011;40337;52.978;6.310;2023-08-07T06:38:25;7.57;;;3.50;;
54428;SDS011;40337;52.978;6.310;2023-08-07T06:40:50;13.32;;;3.72;;
54428;SDS011;40337;52.978;6.310;2023-08-07T06:43:16;12.98;;;3.65;;
54428;SDS011;40337;52.978;6.310;2023-08-07T06:45:42;12.82;;;4.20;;
54428;SDS011;40337;52.978;6.310;2023-08-07T06:48:07;9.77;;;3.25;;
54428;SDS011;40337;52.978;6.310;2023-08-07T06:50:33;12.73;;;4.45;;
54428;SDS011;40337;52.978;6.310;2023-08-07T06:52:58;12.38;;;3.80;;
54428;SDS011;40337;52.978;6.310;2023-08-07T06:55:24;8.70;;;3.42;;
54428;SDS011;40337;52.978;6.310;2023-08-07T06:57:50;11.07;;;3.50;;
54428;SDS011;40337;52.978;6.310;2023-08-07T07:00:16;12.63;;;3.67;;
54428;SDS011;40337;52.978;6.310;2023-08-07T07:02:41;11.73;;;3.55;;
54428;SDS011;40337;52.978;6.310;2023-08-07T07:05:07;9.13;;;3.30;;
54428;SDS011;40337;52.978;6.310;2023-08-07T07:07:33;9.25;;;3.10;;
54428;SDS011;40337;52.978;6.310;2023-08-07T07:09:58;5.65;;;2.20;;
54428;SDS011;40337;52.978;6.310;2023-08-07T07:12:26;6.60;;;2.10;;
54428;SDS011;40337;52.978;6.310;2023-08-07T07:14:52;5.78;;;2.30;;
54428;SDS011;40337;52.978;6.310;2023-08-07T07:17:18;4.32;;;2.10;;
54428;SDS011;40337;52.978;6.310;2023-08-07T07:19:44;7.22;;;2.42;;
54428;SDS011;40337;52.978;6.310;2023-08-07T07:22:10;5.70;;;2.33;;
54428;SDS011;40337;52.978;6.310;2023-08-07T07:24:35;7.20;;;2.35;;
54428;SDS011;40337;52.978;6.310;2023-08-07T07:27:01;6.85;;;2.33;;
54428;SDS011;40337;52.978;6.310;2023-08-07T07:29:26;5.93;;;2.35;;
54428;SDS011;40337;52.978;6.310;2023-08-07T07:31:52;5.93;;;2.40;;
54428;SDS011;40337;52.978;6.310;2023-08-07T07:34:19;9.73;;;2.40;;
54428;SDS011;40337;52.978;6.310;2023-08-07T07:36:45;6.55;;;2.30;;
54428;SDS011;40337;52.978;6.310;2023-08-07T07:39:11;5.40;;;1.95;;
54428;SDS011;40337;52.978;6.310;2023-08-07T07:41:37;9.23;;;2.67;;
54428;SDS011;40337;52.978;6.310;2023-08-07T07:44:02;7.95;;;2.40;;
54428;SDS011;40337;52.978;6.310;2023-08-07T07:46:28;7.50;;;2.58;;
54428;SDS011;40337;52.978;6.310;2023-08-07T07:48:54;5.93;;;2.10;;
54428;SDS011;40337;52.978;6.310;2023-08-07T07:51:20;5.85;;;2.25;;
54428;SDS011;40337;52.978;6.310;2023-08-07T07:53:46;6.03;;;2.53;;
54428;SDS011;40337;52.978;6.310;2023-08-07T07:56:12;7.78;;;2.60;;
54428;SDS011;40337;52.978;6.310;2023-08-07T07:58:37;7.28;;;2.67;;
54428;SDS011;40337;52.978;6.310;2023-08-07T08:01:03;9.18;;;2.50;;
54428;SDS011;40337;52.978;6.310;2023-08-07T08:03:28;6.70;;;2.65;;
54428;SDS011;40337;52.978;6.310;2023-08-07T08:05:54;7.15;;;2.70;;
54428;SDS011;40337;52.978;6.310;2023-08-07T08:08:20;11.13;;;3.38;;
54428;SDS011;40337;52.978;6.310;2023-08-07T08:10:45;8.52;;;3.00;;
54428;SDS011;40337;52.978;6.310;2023-08-07T08:13:13;8.63;;;3.03;;
54428;SDS011;40337;52.978;6.310;2023-08-07T08:15:41;7.18;;;2.80;;
54428;SDS011;40337;52.978;6.310;2023-08-07T08:18:07;9.23;;;3.05;;
54428;SDS011;40337;52.978;6.310;2023-08-07T08:20:33;8.20;;;3.17;;
54428;SDS011;40337;52.978;6.310;2023-08-07T08:22:59;8.63;;;3.30;;
54428;SDS011;40337;52.978;6.310;2023-08-07T08:25:25;10.65;;;3.55;;
54428;SDS011;40337;52.978;6.310;2023-08-07T08:27:50;10.70;;;3.50;;
54428;SDS011;40337;52.978;6.310;2023-08-07T08:30:16;7.68;;;2.90;;
54428;SDS011;40337;52.978;6.310;2023-08-07T08:32:42;9.75;;;3.55;;
54428;SDS011;40337;52.978;6.310;2023-08-07T08:35:08;10.98;;;3.47;;
54428;SDS011;40337;52.978;6.310;2023-08-07T08:37:34;8.70;;;3.42;;
54428;SDS011;40337;52.978;6.310;2023-08-07T08:39:59;7.97;;;3.10;;
54428;SDS011;40337;52.978;6.310;2023-08-07T08:42:25;7.10;;;3.03;;
54428;SDS011;40337;52.978;6.310;2023-08-07T08:44:52;9.05;;;3.17;;
54428;SDS011;40337;52.978;6.310;2023-08-07T08:47:19;9.18;;;3.08;;
54428;SDS011;40337;52.978;6.310;2023-08-07T08:49:47;10.70;;;3.05;;
54428;SDS011;40337;52.978;6.310;2023-08-07T08:52:14;7.43;;;2.88;;
54428;SDS011;40337;52.978;6.310;2023-08-07T08:54:41;7.85;;;2.70;;
54428;SDS011;40337;52.978;6.310;2023-08-07T08:57:06;7.85;;;2.92;;
54428;SDS011;40337;52.978;6.310;2023-08-07T08:59:32;11.90;;;3.30;;
54428;SDS011;40337;52.978;6.310;2023-08-07T09:01:59;6.65;;;2.30;;
54428;SDS011;40337;52.978;6.310;2023-08-07T09:04:24;10.00;;;2.40;;
54428;SDS011;40337;52.978;6.310;2023-08-07T09:06:50;8.50;;;2.83;;
54428;SDS011;40337;52.978;6.310;2023-08-07T09:09:16;6.28;;;2.45;;
54428;SDS011;40337;52.978;6.310;2023-08-07T09:11:45;8.65;;;3.05;;
54428;SDS011;40337;52.978;6.310;2023-08-07T09:14:13;9.02;;;2.65;;
54428;SDS011;40337;52.978;6.310;2023-08-07T09:16:42;6.43;;;2.53;;
54428;SDS011;40337;52.978;6.310;2023-08-07T09:19:11;5.90;;;2.53;;
54428;SDS011;40337;52.978;6.310;2023-08-07T09:21:36;7.90;;;2.40;;
54428;SDS011;40337;52.978;6.310;2023-08-07T09:24:02;6.45;;;2.25;;
54428;SDS011;40337;52.978;6.310;2023-08-07T09:26:28;9.07;;;2.50;;
54428;SDS011;40337;52.978;6.310;2023-08-07T09:28:53;9.50;;;2.67;;
54428;SDS011;40337;52.978;6.310;2023-08-07T09:31:20;5.35;;;2.50;;
54428;SDS011;40337;52.978;6.310;2023-08-07T09:33:47;7.05;;;2.30;;
54428;SDS011;40337;52.978;6.310;2023-08-07T09:36:13;7.38;;;2.28;;
54428;SDS011;40337;52.978;6.310;2023-08-07T09:38:39;5.32;;;2.28;;
54428;SDS011;40337;52.978;6.310;2023-08-07T09:41:04;5.78;;;2.28;;
54428;SDS011;40337;52.978;6.310;2023-08-07T09:43:34;8.18;;;2.40;;
54428;SDS011;40337;52.978;6.310;2023-08-07T09:46:04;7.10;;;2.20;;
54428;SDS011;40337;52.978;6.310;2023-08-07T09:48:30;9.75;;;2.33;;
54428;SDS011;40337;52.978;6.310;2023-08-07T09:51:02;7.00;;;2.50;;
54428;SDS011;40337;52.978;6.310;2023-08-07T09:53:29;9.27;;;2.47;;
54428;SDS011;40337;52.978;6.310;2023-08-07T09:55:55;5.85;;;2.42;;
54428;SDS011;40337;52.978;6.310;2023-08-07T09:58:21;6.30;;;2.65;;
54428;SDS011;40337;52.978;6.310;2023-08-07T10:00:47;5.38;;;2.20;;
54428;SDS011;40337;52.978;6.310;2023-08-07T10:03:13;8.32;;;2.33;;
54428;SDS011;40337;52.978;6.310;2023-08-07T10:05:39;5.82;;;2.30;;
54428;SDS011;40337;52.978;6.310;2023-08-07T10:08:07;6.57;;;2.28;;
54428;SDS011;40337;52.978;6.310;2023-08-07T10:10:33;6.57;;;2.78;;
54428;SDS011;40337;52.978;6.310;2023-08-07T10:13:00;7.10;;;2.40;;
54428;SDS011;40337;52.978;6.310;2023-08-07T10:15:26;6.05;;;2.00;;
54428;SDS011;40337;52.978;6.310;2023-08-07T10:17:53;8.05;;;2.40;;
54428;SDS011;40337;52.978;6.310;2023-08-07T10:20:19;9.02;;;2.40;;
54428;SDS011;40337;52.978;6.310;2023-08-07T10:22:45;7.35;;;2.40;;
54428;SDS011;40337;52.978;6.310;2023-08-07T10:25:11;5.20;;;2.28;;
54428;SDS011;40337;52.978;6.310;2023-08-07T10:27:38;8.07;;;2.67;;
54428;SDS011;40337;52.978;6.310;2023-08-07T10:30:09;7.07;;;2.42;;
54428;SDS011;40337;52.978;6.310;2023-08-07T10:32:38;8.65;;;2.63;;
54428;SDS011;40337;52.978;6.310;2023-08-07T10:35:04;7.95;;;2.47;;
54428;SDS011;40337;52.978;6.310;2023-08-07T10:40:09;6.10;;;2.20;;
54428;SDS011;40337;52.978;6.310;2023-08-07T10:45:36;7.30;;;2.50;;
54428;SDS011;40337;52.978;6.310;2023-08-07T10:50:35;7.40;;;2.50;;
54428;SDS011;40337;52.978;6.310;2023-08-07T10:53:32;6.63;;;2.50;;
54428;SDS011;40337;52.978;6.310;2023-08-07T10:56:00;6.20;;;2.47;;
54428;SDS011;40337;52.978;6.310;2023-08-07T10:58:35;6.70;;;2.30;;
54428;SDS011;40337;52.978;6.310;2023-08-07T11:03:52;6.25;;;2.00;;
54428;SDS011;40337;52.978;6.310;2023-08-07T11:06:21;6.75;;;2.38;;
54428;SDS011;40337;52.978;6.310;2023-08-07T11:08:56;5.53;;;1.88;;
54428;SDS011;40337;52.978;6.310;2023-08-07T11:11:21;5.45;;;2.00;;
54428;SDS011;40337;52.978;6.310;2023-08-07T11:13:47;5.72;;;2.15;;
54428;SDS011;40337;52.978;6.310;2023-08-07T11:16:13;5.57;;;2.00;;
54428;SDS011;40337;52.978;6.310;2023-08-07T11:18:38;6.85;;;2.33;;
54428;SDS011;40337;52.978;6.310;2023-08-07T11:21:07;4.60;;;1.70;;
54428;SDS011;40337;52.978;6.310;2023-08-07T11:23:33;4.07;;;1.67;;
54428;SDS011;40337;52.978;6.310;2023-08-07T11:26:00;5.70;;;1.70;;
54428;SDS011;40337;52.978;6.310;2023-08-07T11:28:27;11.95;;;2.60;;
54428;SDS011;40337;52.978;6.310;2023-08-07T11:30:53;6.70;;;1.80;;
54428;SDS011;40337;52.978;6.310;2023-08-07T11:33:20;5.25;;;1.80;;
54428;SDS011;40337;52.978;6.310;2023-08-07T11:35:50;6.60;;;1.80;;
54428;SDS011;40337;52.978;6.310;2023-08-07T11:41:21;5.97;;;2.05;;
54428;SDS011;40337;52.978;6.310;2023-08-07T11:43:46;4.75;;;2.10;;
54428;SDS011;40337;52.978;6.310;2023-08-07T11:46:13;8.88;;;2.00;;
54428;SDS011;40337;52.978;6.310;2023-08-07T11:48:40;6.45;;;2.40;;
54428;SDS011;40337;52.978;6.310;2023-08-07T11:51:07;7.10;;;1.90;;
54428;SDS011;40337;52.978;6.310;2023-08-07T11:53:35;5.90;;;2.10;;
54428;SDS011;40337;52.978;6.310;2023-08-07T11:56:03;7.30;;;2.17;;
54428;SDS011;40337;52.978;6.310;2023-08-07T11:58:38;5.80;;;2.05;;
54428;SDS011;40337;52.978;6.310;2023-08-07T12:01:05;4.95;;;2.05;;
54428;SDS011;40337;52.978;6.310;2023-08-07T12:03:36;7.47;;;2.35;;
54428;SDS011;40337;52.978;6.310;2023-08-07T12:06:03;6.57;;;2.20;;
54428;SDS011;40337;52.978;6.310;2023-08-07T12:11:06;8.27;;;2.40;;
54428;SDS011;40337;52.978;6.310;2023-08-07T12:13:36;7.05;;;2.40;;
54428;SDS011;40337;52.978;6.310;2023-08-07T12:16:06;4.82;;;2.00;;
54428;SDS011;40337;52.978;6.310;2023-08-07T12:18:33;6.07;;;2.25;;
54428;SDS011;40337;52.978;6.310;2023-08-07T12:21:01;8.02;;;2.47;;
54428;SDS011;40337;52.978;6.310;2023-08-07T12:23:35;5.63;;;2.40;;
54428;SDS011;40337;52.978;6.310;2023-08-07T12:26:01;8.32;;;2.63;;
54428;SDS011;40337;52.978;6.310;2023-08-07T12:28:28;7.43;;;2.40;;
54428;SDS011;40337;52.978;6.310;2023-08-07T12:30:54;8.63;;;2.63;;
54428;SDS011;40337;52.978;6.310;2023-08-07T12:33:19;6.25;;;2.17;;
54428;SDS011;40337;52.978;6.310;2023-08-07T12:35:45;6.07;;;2.20;;
54428;SDS011;40337;52.978;6.310;2023-08-07T12:38:11;5.95;;;1.77;;
54428;SDS011;40337;52.978;6.310;2023-08-07T12:40:39;6.75;;;2.20;;
54428;SDS011;40337;52.978;6.310;2023-08-07T12:43:05;6.70;;;2.15;;
54428;SDS011;40337;52.978;6.310;2023-08-07T12:45:31;7.13;;;2.20;;
54428;SDS011;40337;52.978;6.310;2023-08-07T12:47:57;5.50;;;2.15;;
54428;SDS011;40337;52.978;6.310;2023-08-07T12:50:23;4.68;;;2.30;;
54428;SDS011;40337;52.978;6.310;2023-08-07T12:52:50;5.15;;;2.20;;
54428;SDS011;40337;52.978;6.310;2023-08-07T12:55:16;5.03;;;2.10;;
54428;SDS011;40337;52.978;6.310;2023-08-07T12:57:42;5.57;;;2.20;;
54428;SDS011;40337;52.978;6.310;2023-08-07T13:00:09;6.45;;;2.38;;
54428;SDS011;40337;52.978;6.310;2023-08-07T13:02:38;4.57;;;2.10;;
54428;SDS011;40337;52.978;6.310;2023-08-07T13:05:05;6.28;;;2.20;;
54428;SDS011;40337;52.978;6.310;2023-08-07T13:07:31;5.55;;;2.20;;
54428;SDS011;40337;52.978;6.310;2023-08-07T13:09:56;4.75;;;2.15;;
54428;SDS011;40337;52.978;6.310;2023-08-07T13:12:22;5.53;;;2.28;;
54428;SDS011;40337;52.978;6.310;2023-08-07T13:14:48;7.68;;;2.25;;
54428;SDS011;40337;52.978;6.310;2023-08-07T13:17:13;9.50;;;2.42;;
54428;SDS011;40337;52.978;6.310;2023-08-07T13:19:39;6.38;;;2.35;;
54428;SDS011;40337;52.978;6.310;2023-08-07T13:22:04;5.57;;;2.45;;
54428;SDS011;40337;52.978;6.310;2023-08-07T13:24:30;5.22;;;2.28;;
54428;SDS011;40337;52.978;6.310;2023-08-07T13:26:56;4.43;;;1.80;;
54428;SDS011;40337;52.978;6.310;2023-08-07T13:29:22;6.28;;;2.40;;
54428;SDS011;40337;52.978;6.310;2023-08-07T13:31:47;5.93;;;2.20;;
54428;SDS011;40337;52.978;6.310;2023-08-07T13:34:13;6.57;;;2.67;;
54428;SDS011;40337;52.978;6.310;2023-08-07T13:36:39;6.85;;;2.30;;
54428;SDS011;40337;52.978;6.310;2023-08-07T13:39:04;7.00;;;2.50;;
54428;SDS011;40337;52.978;6.310;2023-08-07T13:41:31;5.60;;;2.70;;
54428;SDS011;40337;52.978;6.310;2023-08-07T13:43:57;5.75;;;2.58;;
54428;SDS011;40337;52.978;6.310;2023-08-07T13:46:23;8.80;;;2.65;;
54428;SDS011;40337;52.978;6.310;2023-08-07T13:48:49;8.00;;;2.55;;
54428;SDS011;40337;52.978;6.310;2023-08-07T13:51:15;7.30;;;2.72;;
54428;SDS011;40337;52.978;6.310;2023-08-07T13:53:41;7.68;;;2.50;;
54428;SDS011;40337;52.978;6.310;2023-08-07T13:56:07;9.65;;;2.40;;
54428;SDS011;40337;52.978;6.310;2023-08-07T13:58:34;7.47;;;2.40;;
54428;SDS011;40337;52.978;6.310;2023-08-07T14:00:59;7.35;;;2.58;;
54428;SDS011;40337;52.978;6.310;2023-08-07T14:03:25;5.53;;;2.03;;
54428;SDS011;40337;52.978;6.310;2023-08-07T14:05:50;8.50;;;2.83;;
54428;SDS011;40337;52.978;6.310;2023-08-07T14:08:16;8.15;;;2.60;;
54428;SDS011;40337;52.978;6.310;2023-08-07T14:10:42;8.35;;;2.30;;
54428;SDS011;40337;52.978;6.310;2023-08-07T14:13:08;7.10;;;2.25;;
54428;SDS011;40337;52.978;6.310;2023-08-07T14:15:35;7.00;;;2.28;;
54428;SDS011;40337;52.978;6.310;2023-08-07T14:18:00;5.90;;;2.05;;
54428;SDS011;40337;52.978;6.310;2023-08-07T14:20:27;9.10;;;2.78;;
54428;SDS011;40337;52.978;6.310;2023-08-07T14:22:52;10.52;;;3.28;;
54428;SDS011;40337;52.978;6.310;2023-08-07T14:25:18;6.13;;;2.05;;
54428;SDS011;40337;52.978;6.310;2023-08-07T14:27:46;8.30;;;2.40;;
54428;SDS011;40337;52.978;6.310;2023-08-07T14:30:12;5.65;;;2.17;;
54428;SDS011;40337;52.978;6.310;2023-08-07T14:32:38;6.88;;;2.42;;
54428;SDS011;40337;52.978;6.310;2023-08-07T14:35:03;5.95;;;2.08;;
54428;SDS011;40337;52.978;6.310;2023-08-07T14:37:29;5.50;;;2.15;;
54428;SDS011;40337;52.978;6.310;2023-08-07T14:39:55;11.95;;;2.55;;
54428;SDS011;40337;52.978;6.310;2023-08-07T14:42:20;6.72;;;2.15;;
54428;SDS011;40337;52.978;6.310;2023-08-07T14:44:46;4.88;;;2.17;;
54428;SDS011;40337;52.978;6.310;2023-08-07T14:47:11;3.42;;;1.67;;
54428;SDS011;40337;52.978;6.310;2023-08-07T14:49:37;5.28;;;2.08;;
54428;SDS011;40337;52.978;6.310;2023-08-07T14:52:03;7.00;;;2.30;;
54428;SDS011;40337;52.978;6.310;2023-08-07T14:54:28;5.43;;;1.80;;
54428;SDS011;40337;52.978;6.310;2023-08-07T14:56:54;4.97;;;1.83;;